sensor_id;sensor_type;location;lat;lon;timestamp;P1;durP1;ratioP1;P2;durP2;ratioP2
48987;SDS011;34799;51.440;-2.534;2023-06-22T00:01:46;8.50;;;4.50;;
48987;SDS011;34799;51.440;-2.534;2023-06-22T00:04:13;8.23;;;4.18;;
48987;SDS011;34799;51.440;-2.534;2023-06-22T00:06:40;9.70;;;4.50;;
48987;SDS011;34799;51.440;-2.534;2023-06-22T00:09:07;8.25;;;4.35;;
48987;SDS011;34799;51.440;-2.534;2023-06-22T00:11:37;7.40;;;4.38;;
48987;SDS011;34799;51.440;-2.534;2023-06-22T00:14:06;6.68;;;3.58;;
48987;SDS011;34799;51.440;-2.534;2023-06-22T00:16:33;8.13;;;4.10;;
48987;SDS011;34799;51.440;-2.534;2023-06-22T00:19:01;8.27;;;3.80;;
48987;SDS011;34799;51.440;-2.534;2023-06-22T00:21:29;7.95;;;4.20;;
48987;SDS011;34799;51.440;-2.534;2023-06-22T00:23:57;7.82;;;3.83;;
48987;SDS011;34799;51.440;-2.534;2023-06-22T00:26:24;9.68;;;4.10;;
48987;SDS011;34799;51.440;-2.534;2023-06-22T00:28:51;7.13;;;3.92;;
48987;SDS011;34799;51.440;-2.534;2023-06-22T00:31:18;8.90;;;3.92;;
48987;SDS011;34799;51.440;-2.534;2023-06-22T00:33:45;8.65;;;4.10;;
48987;SDS011;34799;51.440;-2.534;2023-06-22T00:36:13;7.68;;;4.57;;
48987;SDS011;34799;51.440;-2.534;2023-06-22T00:38:43;7.65;;;3.97;;
48987;SDS011;34799;51.440;-2.534;2023-06-22T00:41:12;9.30;;;4.53;;
48987;SDS011;34799;51.440;-2.534;2023-06-22T00:43:39;8.55;;;4.30;;
48987;SDS011;34799;51.440;-2.534;2023-06-22T00:46:08;9.52;;;4.93;;
48987;SDS011;34799;51.440;-2.534;2023-06-22T00:48:35;9.43;;;4.38;;
48987;SDS011;34799;51.440;-2.534;2023-06-22T00:51:03;8.77;;;4.70;;
48987;SDS011;34799;51.440;-2.534;2023-06-22T00:53:30;12.70;;;5.28;;
48987;SDS011;34799;51.440;-2.534;2023-06-22T00:56:02;8.10;;;4.05;;
48987;SDS011;34799;51.440;-2.534;2023-06-22T00:58:30;8.90;;;4.30;;
48987;SDS011;34799;51.440;-2.534;2023-06-22T01:00:58;9.05;;;4.13;;
48987;SDS011;34799;51.440;-2.534;2023-06-22T01:03:26;8.20;;;4.18;;
48987;SDS011;34799;51.440;-2.534;2023-06-22T01:05:56;8.60;;;4.60;;
48987;SDS011;34799;51.440;-2.534;2023-06-22T01:08:41;7.22;;;4.35;;
48987;SDS011;34799;51.440;-2.534;2023-06-22T01:11:20;7.80;;;4.22;;
48987;SDS011;34799;51.440;-2.534;2023-06-22T01:14:12;9.10;;;4.88;;
48987;SDS011;34799;51.440;-2.534;2023-06-22T01:16:45;9.15;;;4.50;;
48987;SDS011;34799;51.440;-2.534;2023-06-22T01:22:18;6.10;;;4.25;;
48987;SDS011;34799;51.440;-2.534;2023-06-22T01:30:28;8.63;;;5.40;;
48987;SDS011;34799;51.440;-2.534;2023-06-22T01:32:57;7.38;;;5.03;;
48987;SDS011;34799;51.440;-2.534;2023-06-22T01:35:24;9.52;;;5.43;;
48987;SDS011;34799;51.440;-2.534;2023-06-22T01:37:52;9.57;;;4.53;;
48987;SDS011;34799;51.440;-2.534;2023-06-22T01:40:20;8.13;;;4.35;;
48987;SDS011;34799;51.440;-2.534;2023-06-22T01:42:50;8.80;;;4.25;;
48987;SDS011;34799;51.440;-2.534;2023-06-22T01:45:19;7.15;;;4.55;;
48987;SDS011;34799;51.440;-2.534;2023-06-22T01:47:46;10.23;;;5.28;;
48987;SDS011;34799;51.440;-2.534;2023-06-22T01:50:14;11.20;;;5.57;;
48987;SDS011;34799;51.440;-2.534;2023-06-22T01:52:41;10.60;;;4.93;;
48987;SDS011;34799;51.440;-2.534;2023-06-22T01:55:08;9.23;;;5.57;;
48987;SDS011;34799;51.440;-2.534;2023-06-22T01:57:35;8.10;;;4.80;;
48987;SDS011;34799;51.440;-2.534;2023-06-22T02:00:04;9.82;;;5.13;;
48987;SDS011;34799;51.440;-2.534;2023-06-22T02:03:30;8.75;;;5.28;;
48987;SDS011;34799;51.440;-2.534;2023-06-22T02:05:44;11.13;;;5.60;;
48987;SDS011;34799;51.440;-2.534;2023-06-22T02:08:20;14.75;;;6.90;;
48987;SDS011;34799;51.440;-2.534;2023-06-22T02:10:51;13.73;;;6.60;;
48987;SDS011;34799;51.440;-2.534;2023-06-22T02:13:21;12.45;;;5.97;;
48987;SDS011;34799;51.440;-2.534;2023-06-22T02:15:50;15.02;;;6.45;;
48987;SDS011;34799;51.440;-2.534;2023-06-22T02:18:17;13.32;;;6.68;;
48987;SDS011;34799;51.440;-2.534;2023-06-22T02:20:44;11.50;;;6.63;;
48987;SDS011;34799;51.440;-2.534;2023-06-22T02:23:12;11.23;;;5.63;;
48987;SDS011;34799;51.440;-2.534;2023-06-22T02:25:39;12.00;;;5.97;;
48987;SDS011;34799;51.440;-2.534;2023-06-22T02:28:06;10.98;;;5.97;;
48987;SDS011;34799;51.440;-2.534;2023-06-22T02:30:33;12.43;;;5.93;;
48987;SDS011;34799;51.440;-2.534;2023-06-22T02:33:00;8.98;;;5.05;;
48987;SDS011;34799;51.440;-2.534;2023-06-22T02:35:28;9.55;;;4.88;;
48987;SDS011;34799;51.440;-2.534;2023-06-22T02:37:59;12.32;;;5.25;;
48987;SDS011;34799;51.440;-2.534;2023-06-22T02:40:27;7.78;;;4.20;;
48987;SDS011;34799;51.440;-2.534;2023-06-22T02:42:56;9.20;;;5.18;;
48987;SDS011;34799;51.440;-2.534;2023-06-22T02:45:29;7.47;;;4.78;;
48987;SDS011;34799;51.440;-2.534;2023-06-22T02:47:57;8.55;;;5.03;;
48987;SDS011;34799;51.440;-2.534;2023-06-22T02:50:24;8.10;;;4.63;;
48987;SDS011;34799;51.440;-2.534;2023-06-22T02:52:52;9.50;;;5.15;;
48987;SDS011;34799;51.440;-2.534;2023-06-22T02:55:20;8.52;;;5.43;;
48987;SDS011;34799;51.440;-2.534;2023-06-22T02:57:53;12.98;;;5.70;;
48987;SDS011;34799;51.440;-2.534;2023-06-22T03:00:20;10.02;;;5.07;;
48987;SDS011;34799;51.440;-2.534;2023-06-22T03:02:48;13.20;;;5.90;;
48987;SDS011;34799;51.440;-2.534;2023-06-22T03:05:16;9.50;;;4.90;;
48987;SDS011;34799;51.440;-2.534;2023-06-22T03:07:45;9.23;;;5.13;;
48987;SDS011;34799;51.440;-2.534;2023-06-22T03:10:13;12.38;;;5.60;;
48987;SDS011;34799;51.440;-2.534;2023-06-22T03:12:43;9.68;;;5.07;;
48987;SDS011;34799;51.440;-2.534;2023-06-22T03:15:11;12.07;;;5.60;;
48987;SDS011;34799;51.440;-2.534;2023-06-22T03:17:39;8.65;;;5.00;;
48987;SDS011;34799;51.440;-2.534;2023-06-22T03:20:08;8.07;;;4.63;;
48987;SDS011;34799;51.440;-2.534;2023-06-22T03:22:39;9.95;;;5.63;;
48987;SDS011;34799;51.440;-2.534;2023-06-22T03:25:10;8.10;;;5.25;;
48987;SDS011;34799;51.440;-2.534;2023-06-22T03:27:43;10.20;;;5.20;;
48987;SDS011;34799;51.440;-2.534;2023-06-22T03:30:11;10.27;;;5.30;;
48987;SDS011;34799;51.440;-2.534;2023-06-22T03:32:38;12.40;;;5.40;;
48987;SDS011;34799;51.440;-2.534;2023-06-22T03:35:06;7.45;;;4.88;;
48987;SDS011;34799;51.440;-2.534;2023-06-22T03:37:35;9.50;;;5.32;;
48987;SDS011;34799;51.440;-2.534;2023-06-22T03:40:05;9.20;;;5.72;;
48987;SDS011;34799;51.440;-2.534;2023-06-22T03:42:34;9.07;;;5.38;;
48987;SDS011;34799;51.440;-2.534;2023-06-22T03:45:04;11.80;;;5.38;;
48987;SDS011;34799;51.440;-2.534;2023-06-22T03:47:33;11.70;;;6.40;;
48987;SDS011;34799;51.440;-2.534;2023-06-22T03:50:01;11.52;;;6.15;;
48987;SDS011;34799;51.440;-2.534;2023-06-22T03:52:31;9.85;;;6.22;;
48987;SDS011;34799;51.440;-2.534;2023-06-22T03:54:58;12.90;;;5.72;;
48987;SDS011;34799;51.440;-2.534;2023-06-22T03:57:25;8.90;;;5.63;;
48987;SDS011;34799;51.440;-2.534;2023-06-22T03:59:54;11.70;;;5.43;;
48987;SDS011;34799;51.440;-2.534;2023-06-22T04:02:24;9.77;;;5.47;;
48987;SDS011;34799;51.440;-2.534;2023-06-22T04:04:52;9.85;;;5.40;;
48987;SDS011;34799;51.440;-2.534;2023-06-22T04:07:20;7.00;;;4.72;;
48987;SDS011;34799;51.440;-2.534;2023-06-22T04:09:47;9.55;;;5.30;;
48987;SDS011;34799;51.440;-2.534;2023-06-22T04:12:14;8.98;;;5.20;;
48987;SDS011;34799;51.440;-2.534;2023-06-22T04:14:41;7.55;;;5.05;;
48987;SDS011;34799;51.440;-2.534;2023-06-22T04:17:08;10.07;;;5.90;;
48987;SDS011;34799;51.440;-2.534;2023-06-22T04:19:35;10.63;;;5.53;;
48987;SDS011;34799;51.440;-2.534;2023-06-22T04:22:02;14.43;;;7.35;;
48987;SDS011;34799;51.440;-2.534;2023-06-22T04:24:30;10.52;;;6.50;;
48987;SDS011;34799;51.440;-2.534;2023-06-22T04:26:57;11.95;;;5.57;;
48987;SDS011;34799;51.440;-2.534;2023-06-22T04:29:26;10.40;;;5.07;;
48987;SDS011;34799;51.440;-2.534;2023-06-22T04:31:57;11.63;;;5.32;;
48987;SDS011;34799;51.440;-2.534;2023-06-22T04:34:29;12.05;;;5.78;;
48987;SDS011;34799;51.440;-2.534;2023-06-22T04:36:56;11.95;;;6.07;;
48987;SDS011;34799;51.440;-2.534;2023-06-22T04:39:23;10.43;;;5.38;;
48987;SDS011;34799;51.440;-2.534;2023-06-22T04:41:50;12.63;;;6.47;;
48987;SDS011;34799;51.440;-2.534;2023-06-22T04:44:18;10.55;;;5.88;;
48987;SDS011;34799;51.440;-2.534;2023-06-22T04:46:55;8.70;;;5.32;;
48987;SDS011;34799;51.440;-2.534;2023-06-22T04:49:35;9.80;;;5.25;;
48987;SDS011;34799;51.440;-2.534;2023-06-22T04:52:04;10.95;;;5.60;;
48987;SDS011;34799;51.440;-2.534;2023-06-22T04:54:32;11.57;;;5.47;;
48987;SDS011;34799;51.440;-2.534;2023-06-22T04:57:00;14.15;;;6.00;;
48987;SDS011;34799;51.440;-2.534;2023-06-22T04:59:30;9.85;;;5.13;;
48987;SDS011;34799;51.440;-2.534;2023-06-22T05:01:58;8.38;;;4.88;;
48987;SDS011;34799;51.440;-2.534;2023-06-22T05:04:27;10.18;;;4.93;;
48987;SDS011;34799;51.440;-2.534;2023-06-22T05:06:59;11.40;;;5.63;;
48987;SDS011;34799;51.440;-2.534;2023-06-22T05:09:27;8.50;;;5.13;;
48987;SDS011;34799;51.440;-2.534;2023-06-22T05:11:55;8.88;;;5.38;;
48987;SDS011;34799;51.440;-2.534;2023-06-22T05:14:29;8.90;;;5.53;;
48987;SDS011;34799;51.440;-2.534;2023-06-22T05:16:57;9.70;;;5.25;;
48987;SDS011;34799;51.440;-2.534;2023-06-22T05:19:25;9.82;;;5.55;;
48987;SDS011;34799;51.440;-2.534;2023-06-22T05:22:00;8.02;;;4.80;;
48987;SDS011;34799;51.440;-2.534;2023-06-22T05:24:27;16.75;;;5.82;;
48987;SDS011;34799;51.440;-2.534;2023-06-22T05:26:54;10.98;;;5.50;;
48987;SDS011;34799;51.440;-2.534;2023-06-22T05:29:21;6.93;;;4.50;;
48987;SDS011;34799;51.440;-2.534;2023-06-22T05:31:49;10.25;;;4.57;;
48987;SDS011;34799;51.440;-2.534;2023-06-22T05:34:16;8.95;;;4.95;;
48987;SDS011;34799;51.440;-2.534;2023-06-22T05:36:43;9.00;;;5.10;;
48987;SDS011;34799;51.440;-2.534;2023-06-22T05:39:11;8.45;;;5.22;;
48987;SDS011;34799;51.440;-2.534;2023-06-22T05:41:40;10.90;;;5.45;;
48987;SDS011;34799;51.440;-2.534;2023-06-22T05:44:07;8.77;;;5.18;;
48987;SDS011;34799;51.440;-2.534;2023-06-22T05:46:34;9.15;;;5.20;;
48987;SDS011;34799;51.440;-2.534;2023-06-22T05:49:01;7.45;;;5.13;;
48987;SDS011;34799;51.440;-2.534;2023-06-22T05:51:29;7.28;;;4.75;;
48987;SDS011;34799;51.440;-2.534;2023-06-22T05:53:57;11.80;;;6.25;;
48987;SDS011;34799;51.440;-2.534;2023-06-22T05:56:25;10.23;;;5.40;;
48987;SDS011;34799;51.440;-2.534;2023-06-22T05:58:52;7.15;;;4.72;;
48987;SDS011;34799;51.440;-2.534;2023-06-22T06:01:19;7.03;;;4.50;;
48987;SDS011;34799;51.440;-2.534;2023-06-22T06:03:47;9.68;;;5.22;;
48987;SDS011;34799;51.440;-2.534;2023-06-22T06:06:16;12.25;;;5.68;;
48987;SDS011;34799;51.440;-2.534;2023-06-22T06:08:43;9.32;;;4.88;;
48987;SDS011;34799;51.440;-2.534;2023-06-22T06:11:10;10.10;;;5.63;;
48987;SDS011;34799;51.440;-2.534;2023-06-22T06:13:37;8.30;;;5.50;;
48987;SDS011;34799;51.440;-2.534;2023-06-22T06:16:04;9.65;;;4.78;;
48987;SDS011;34799;51.440;-2.534;2023-06-22T06:18:31;10.60;;;5.65;;
48987;SDS011;34799;51.440;-2.534;2023-06-22T06:20:58;9.52;;;5.28;;
48987;SDS011;34799;51.440;-2.534;2023-06-22T06:23:25;8.85;;;5.30;;
48987;SDS011;34799;51.440;-2.534;2023-06-22T06:25:52;9.45;;;5.03;;
48987;SDS011;34799;51.440;-2.534;2023-06-22T06:28:19;10.07;;;4.78;;
48987;SDS011;34799;51.440;-2.534;2023-06-22T06:30:50;8.45;;;4.55;;
48987;SDS011;34799;51.440;-2.534;2023-06-22T06:33:19;7.75;;;4.30;;
48987;SDS011;34799;51.440;-2.534;2023-06-22T06:35:48;7.78;;;4.57;;
48987;SDS011;34799;51.440;-2.534;2023-06-22T06:38:15;7.00;;;4.70;;
48987;SDS011;34799;51.440;-2.534;2023-06-22T06:40:42;8.35;;;4.57;;
48987;SDS011;34799;51.440;-2.534;2023-06-22T06:43:10;6.93;;;4.40;;
48987;SDS011;34799;51.440;-2.534;2023-06-22T06:45:38;6.35;;;3.50;;
48987;SDS011;34799;51.440;-2.534;2023-06-22T06:48:05;7.15;;;3.53;;
48987;SDS011;34799;51.440;-2.534;2023-06-22T06:50:33;8.70;;;3.50;;
48987;SDS011;34799;51.440;-2.534;2023-06-22T06:53:02;5.53;;;3.20;;
48987;SDS011;34799;51.440;-2.534;2023-06-22T06:55:29;6.40;;;3.67;;
48987;SDS011;34799;51.440;-2.534;2023-06-22T06:57:59;5.85;;;3.17;;
48987;SDS011;34799;51.440;-2.534;2023-06-22T07:00:26;6.25;;;3.00;;
48987;SDS011;34799;51.440;-2.534;2023-06-22T07:02:54;4.70;;;2.30;;
48987;SDS011;34799;51.440;-2.534;2023-06-22T07:05:21;5.97;;;2.88;;
48987;SDS011;34799;51.440;-2.534;2023-06-22T07:07:48;5.93;;;3.40;;
48987;SDS011;34799;51.440;-2.534;2023-06-22T07:10:15;3.95;;;2.50;;
48987;SDS011;34799;51.440;-2.534;2023-06-22T07:12:42;5.10;;;2.20;;
48987;SDS011;34799;51.440;-2.534;2023-06-22T07:15:09;4.03;;;2.75;;
48987;SDS011;34799;51.440;-2.534;2023-06-22T07:17:39;4.95;;;2.20;;
48987;SDS011;34799;51.440;-2.534;2023-06-22T07:20:09;5.43;;;2.75;;
48987;SDS011;34799;51.440;-2.534;2023-06-22T07:22:38;3.47;;;1.80;;
48987;SDS011;34799;51.440;-2.534;2023-06-22T07:25:08;6.00;;;2.10;;
48987;SDS011;34799;51.440;-2.534;2023-06-22T07:27:37;3.28;;;1.67;;
48987;SDS011;34799;51.440;-2.534;2023-06-22T07:30:09;5.38;;;2.20;;
48987;SDS011;34799;51.440;-2.534;2023-06-22T07:32:39;4.05;;;2.00;;
48987;SDS011;34799;51.440;-2.534;2023-06-22T07:35:06;5.20;;;2.35;;
48987;SDS011;34799;51.440;-2.534;2023-06-22T07:37:34;4.03;;;2.42;;
48987;SDS011;34799;51.440;-2.534;2023-06-22T07:40:01;4.40;;;2.38;;
48987;SDS011;34799;51.440;-2.534;2023-06-22T07:42:33;5.97;;;2.80;;
48987;SDS011;34799;51.440;-2.534;2023-06-22T07:45:02;6.70;;;2.67;;
48987;SDS011;34799;51.440;-2.534;2023-06-22T07:47:30;3.15;;;2.03;;
48987;SDS011;34799;51.440;-2.534;2023-06-22T07:50:00;3.70;;;2.25;;
48987;SDS011;34799;51.440;-2.534;2023-06-22T07:52:28;5.75;;;2.15;;
48987;SDS011;34799;51.440;-2.534;2023-06-22T07:54:55;6.50;;;2.25;;
48987;SDS011;34799;51.440;-2.534;2023-06-22T07:57:22;3.97;;;1.92;;
48987;SDS011;34799;51.440;-2.534;2023-06-22T07:59:58;5.28;;;1.85;;
48987;SDS011;34799;51.440;-2.534;2023-06-22T08:02:39;6.38;;;2.45;;
48987;SDS011;34799;51.440;-2.534;2023-06-22T08:05:08;4.90;;;2.50;;
48987;SDS011;34799;51.440;-2.534;2023-06-22T08:07:45;5.90;;;2.40;;
48987;SDS011;34799;51.440;-2.534;2023-06-22T08:10:13;5.20;;;2.08;;
48987;SDS011;34799;51.440;-2.534;2023-06-22T08:12:40;4.90;;;2.13;;
48987;SDS011;34799;51.440;-2.534;2023-06-22T08:15:08;7.68;;;2.00;;
48987;SDS011;34799;51.440;-2.534;2023-06-22T08:17:37;5.38;;;2.20;;
48987;SDS011;34799;51.440;-2.534;2023-06-22T08:20:06;2.58;;;1.60;;
48987;SDS011;34799;51.440;-2.534;2023-06-22T08:22:39;4.07;;;2.10;;
48987;SDS011;34799;51.440;-2.534;2023-06-22T08:25:08;3.97;;;1.92;;
48987;SDS011;34799;51.440;-2.534;2023-06-22T08:27:36;3.33;;;1.67;;
48987;SDS011;34799;51.440;-2.534;2023-06-22T08:30:03;5.22;;;2.03;;
48987;SDS011;34799;51.440;-2.534;2023-06-22T08:32:31;5.35;;;2.20;;
48987;SDS011;34799;51.440;-2.534;2023-06-22T08:34:59;4.03;;;2.63;;
48987;SDS011;34799;51.440;-2.534;2023-06-22T08:37:26;5.18;;;2.25;;
48987;SDS011;34799;51.440;-2.534;2023-06-22T08:40:05;5.63;;;2.15;;
48987;SDS011;34799;51.440;-2.534;2023-06-22T08:42:35;5.57;;;1.90;;
48987;SDS011;34799;51.440;-2.534;2023-06-22T08:45:03;5.78;;;2.17;;
48987;SDS011;34799;51.440;-2.534;2023-06-22T08:47:31;4.32;;;2.03;;
48987;SDS011;34799;51.440;-2.534;2023-06-22T08:49:58;4.00;;;1.98;;
48987;SDS011;34799;51.440;-2.534;2023-06-22T08:52:25;5.85;;;1.98;;
48987;SDS011;34799;51.440;-2.534;2023-06-22T08:54:52;3.40;;;1.65;;
48987;SDS011;34799;51.440;-2.534;2023-06-22T08:57:20;3.45;;;1.80;;
48987;SDS011;34799;51.440;-2.534;2023-06-22T08:59:47;3.50;;;1.92;;
48987;SDS011;34799;51.440;-2.534;2023-06-22T09:02:14;4.22;;;1.85;;
48987;SDS011;34799;51.440;-2.534;2023-06-22T09:04:47;3.90;;;2.00;;
48987;SDS011;34799;51.440;-2.534;2023-06-22T09:07:16;4.20;;;1.83;;
48987;SDS011;34799;51.440;-2.534;2023-06-22T09:09:48;4.05;;;2.05;;
48987;SDS011;34799;51.440;-2.534;2023-06-22T09:12:16;5.30;;;1.98;;
48987;SDS011;34799;51.440;-2.534;2023-06-22T09:14:46;3.65;;;1.73;;
48987;SDS011;34799;51.440;-2.534;2023-06-22T09:17:13;4.38;;;1.50;;
48987;SDS011;34799;51.440;-2.534;2023-06-22T09:19:40;2.95;;;1.63;;
48987;SDS011;34799;51.440;-2.534;2023-06-22T09:22:07;3.03;;;1.95;;
48987;SDS011;34799;51.440;-2.534;2023-06-22T09:24:35;4.93;;;1.70;;
48987;SDS011;34799;51.440;-2.534;2023-06-22T09:27:02;2.97;;;1.67;;
48987;SDS011;34799;51.440;-2.534;2023-06-22T09:29:30;3.85;;;1.77;;
48987;SDS011;34799;51.440;-2.534;2023-06-22T09:32:01;3.60;;;1.65;;
48987;SDS011;34799;51.440;-2.534;2023-06-22T09:34:29;3.63;;;1.60;;
48987;SDS011;34799;51.440;-2.534;2023-06-22T09:36:57;4.20;;;1.63;;
48987;SDS011;34799;51.440;-2.534;2023-06-22T09:39:27;5.43;;;2.20;;
48987;SDS011;34799;51.440;-2.534;2023-06-22T09:41:58;3.25;;;2.10;;
48987;SDS011;34799;51.440;-2.534;2023-06-22T09:44:26;3.42;;;1.83;;
48987;SDS011;34799;51.440;-2.534;2023-06-22T09:46:53;6.25;;;2.13;;
48987;SDS011;34799;51.440;-2.534;2023-06-22T09:49:20;5.93;;;2.25;;
48987;SDS011;34799;51.440;-2.534;2023-06-22T09:51:53;10.13;;;2.60;;
48987;SDS011;34799;51.440;-2.534;2023-06-22T09:54:20;5.88;;;1.90;;
48987;SDS011;34799;51.440;-2.534;2023-06-22T09:56:47;7.80;;;2.50;;
48987;SDS011;34799;51.440;-2.534;2023-06-22T09:59:14;4.65;;;1.80;;
48987;SDS011;34799;51.440;-2.534;2023-06-22T10:01:43;3.08;;;1.70;;
48987;SDS011;34799;51.440;-2.534;2023-06-22T10:04:10;4.00;;;1.75;;
48987;SDS011;34799;51.440;-2.534;2023-06-22T10:06:38;4.00;;;1.92;;
48987;SDS011;34799;51.440;-2.534;2023-06-22T10:09:07;4.88;;;1.77;;
48987;SDS011;34799;51.440;-2.534;2023-06-22T10:11:36;2.70;;;1.40;;
48987;SDS011;34799;51.440;-2.534;2023-06-22T10:14:04;2.58;;;1.55;;
48987;SDS011;34799;51.440;-2.534;2023-06-22T10:16:31;4.03;;;1.48;;
48987;SDS011;34799;51.440;-2.534;2023-06-22T10:18:59;5.32;;;1.77;;
48987;SDS011;34799;51.440;-2.534;2023-06-22T10:21:26;2.78;;;1.55;;
48987;SDS011;34799;51.440;-2.534;2023-06-22T10:23:54;3.35;;;2.15;;
48987;SDS011;34799;51.440;-2.534;2023-06-22T10:26:22;5.90;;;2.60;;
48987;SDS011;34799;51.440;-2.534;2023-06-22T10:28:49;5.90;;;1.70;;
48987;SDS011;34799;51.440;-2.534;2023-06-22T10:31:19;4.55;;;1.85;;
48987;SDS011;34799;51.440;-2.534;2023-06-22T10:33:48;4.03;;;1.80;;
48987;SDS011;34799;51.440;-2.534;2023-06-22T10:36:16;3.58;;;1.60;;
48987;SDS011;34799;51.440;-2.534;2023-06-22T10:38:43;3.53;;;1.48;;
48987;SDS011;34799;51.440;-2.534;2023-06-22T10:41:10;4.47;;;1.42;;
48987;SDS011;34799;51.440;-2.534;2023-06-22T10:43:37;2.28;;;1.20;;
48987;SDS011;34799;51.440;-2.534;2023-06-22T10:46:04;3.70;;;1.60;;
48987;SDS011;34799;51.440;-2.534;2023-06-22T10:48:31;2.65;;;1.50;;
48987;SDS011;34799;51.440;-2.534;2023-06-22T10:50:58;3.65;;;1.95;;
48987;SDS011;34799;51.440;-2.534;2023-06-22T10:53:25;3.45;;;1.55;;
48987;SDS011;34799;51.440;-2.534;2023-06-22T10:55:52;3.80;;;1.58;;
48987;SDS011;34799;51.440;-2.534;2023-06-22T10:58:22;2.35;;;1.40;;
48987;SDS011;34799;51.440;-2.534;2023-06-22T11:00:49;3.28;;;1.90;;
48987;SDS011;34799;51.440;-2.534;2023-06-22T11:03:16;3.38;;;1.77;;
48987;SDS011;34799;51.440;-2.534;2023-06-22T11:05:43;4.60;;;1.85;;
48987;SDS011;34799;51.440;-2.534;2023-06-22T11:08:10;4.05;;;1.80;;
48987;SDS011;34799;51.440;-2.534;2023-06-22T11:10:37;3.08;;;1.30;;
48987;SDS011;34799;51.440;-2.534;2023-06-22T11:13:04;3.42;;;1.33;;
48987;SDS011;34799;51.440;-2.534;2023-06-22T11:15:33;2.75;;;1.23;;
48987;SDS011;34799;51.440;-2.534;2023-06-22T11:18:01;3.58;;;1.52;;
48987;SDS011;34799;51.440;-2.534;2023-06-22T11:20:28;2.80;;;1.45;;
48987;SDS011;34799;51.440;-2.534;2023-06-22T11:22:55;4.35;;;1.70;;
48987;SDS011;34799;51.440;-2.534;2023-06-22T11:25:22;4.82;;;1.60;;
48987;SDS011;34799;51.440;-2.534;2023-06-22T11:27:50;3.20;;;1.50;;
48987;SDS011;34799;51.440;-2.534;2023-06-22T11:30:20;2.30;;;1.25;;
48987;SDS011;34799;51.440;-2.534;2023-06-22T11:32:47;2.47;;;1.23;;
48987;SDS011;34799;51.440;-2.534;2023-06-22T11:35:14;2.90;;;1.60;;
48987;SDS011;34799;51.440;-2.534;2023-06-22T11:37:41;4.28;;;1.40;;
48987;SDS011;34799;51.440;-2.534;2023-06-22T11:40:09;2.80;;;1.48;;
48987;SDS011;34799;51.440;-2.534;2023-06-22T11:42:38;2.28;;;1.30;;
48987;SDS011;34799;51.440;-2.534;2023-06-22T11:45:06;3.65;;;1.42;;
48987;SDS011;34799;51.440;-2.534;2023-06-22T11:47:34;3.47;;;1.40;;
48987;SDS011;34799;51.440;-2.534;2023-06-22T11:50:01;3.63;;;1.23;;
48987;SDS011;34799;51.440;-2.534;2023-06-22T11:52:28;2.58;;;1.17;;
48987;SDS011;34799;51.440;-2.534;2023-06-22T11:54:55;3.05;;;1.20;;
48987;SDS011;34799;51.440;-2.534;2023-06-22T11:57:22;2.60;;;1.13;;
48987;SDS011;34799;51.440;-2.534;2023-06-22T11:59:49;3.22;;;1.30;;
48987;SDS011;34799;51.440;-2.534;2023-06-22T12:02:16;2.55;;;1.48;;
48987;SDS011;34799;51.440;-2.534;2023-06-22T12:04:43;6.63;;;1.40;;
48987;SDS011;34799;51.440;-2.534;2023-06-22T12:07:10;3.00;;;1.60;;
48987;SDS011;34799;51.440;-2.534;2023-06-22T12:09:37;2.83;;;1.40;;
48987;SDS011;34799;51.440;-2.534;2023-06-22T12:12:04;2.03;;;1.10;;
48987;SDS011;34799;51.440;-2.534;2023-06-22T12:14:34;1.85;;;1.10;;
48987;SDS011;34799;51.440;-2.534;2023-06-22T12:17:01;2.65;;;1.13;;
48987;SDS011;34799;51.440;-2.534;2023-06-22T12:19:28;2.45;;;1.35;;
48987;SDS011;34799;51.440;-2.534;2023-06-22T12:21:55;2.58;;;1.35;;
48987;SDS011;34799;51.440;-2.534;2023-06-22T12:24:22;2.40;;;1.10;;
48987;SDS011;34799;51.440;-2.534;2023-06-22T12:26:49;3.55;;;1.15;;
48987;SDS011;34799;51.440;-2.534;2023-06-22T12:29:16;2.58;;;1.75;;
48987;SDS011;34799;51.440;-2.534;2023-06-22T12:31:43;1.55;;;1.23;;
48987;SDS011;34799;51.440;-2.534;2023-06-22T12:34:10;1.67;;;0.88;;
48987;SDS011;34799;51.440;-2.534;2023-06-22T12:36:37;2.22;;;1.30;;
48987;SDS011;34799;51.440;-2.534;2023-06-22T12:39:05;1.02;;;0.95;;
48987;SDS011;34799;51.440;-2.534;2023-06-22T12:41:33;3.15;;;1.20;;
48987;SDS011;34799;51.440;-2.534;2023-06-22T12:44:01;3.63;;;1.20;;
48987;SDS011;34799;51.440;-2.534;2023-06-22T12:46:29;5.72;;;1.33;;
48987;SDS011;34799;51.440;-2.534;2023-06-22T12:49:03;2.75;;;1.75;;
48987;SDS011;34799;51.440;-2.534;2023-06-22T12:51:31;2.85;;;1.05;;
48987;SDS011;34799;51.440;-2.534;2023-06-22T12:53:59;3.35;;;1.48;;
48987;SDS011;34799;51.440;-2.534;2023-06-22T12:56:26;3.80;;;1.58;;
48987;SDS011;34799;51.440;-2.534;2023-06-22T12:58:53;3.83;;;1.30;;
48987;SDS011;34799;51.440;-2.534;2023-06-22T13:01:20;5.70;;;1.90;;
48987;SDS011;34799;51.440;-2.534;2023-06-22T13:03:47;2.90;;;1.58;;
48987;SDS011;34799;51.440;-2.534;2023-06-22T13:06:14;2.42;;;1.60;;
48987;SDS011;34799;51.440;-2.534;2023-06-22T13:08:41;3.83;;;1.42;;
48987;SDS011;34799;51.440;-2.534;2023-06-22T13:11:11;5.22;;;1.70;;
48987;SDS011;34799;51.440;-2.534;2023-06-22T13:13:39;3.53;;;1.50;;
48987;SDS011;34799;51.440;-2.534;2023-06-22T13:16:07;4.55;;;1.30;;
48987;SDS011;34799;51.440;-2.534;2023-06-22T13:18:36;2.97;;;1.63;;
48987;SDS011;34799;51.440;-2.534;2023-06-22T13:21:03;4.63;;;1.73;;
48987;SDS011;34799;51.440;-2.534;2023-06-22T13:23:31;4.53;;;1.20;;
48987;SDS011;34799;51.440;-2.534;2023-06-22T13:25:58;3.05;;;1.30;;
48987;SDS011;34799;51.440;-2.534;2023-06-22T13:28:25;2.83;;;1.30;;
48987;SDS011;34799;51.440;-2.534;2023-06-22T13:30:53;3.92;;;1.40;;
48987;SDS011;34799;51.440;-2.534;2023-06-22T13:33:20;3.38;;;1.35;;
48987;SDS011;34799;51.440;-2.534;2023-06-22T13:35:47;6.35;;;1.55;;
48987;SDS011;34799;51.440;-2.534;2023-06-22T13:38:14;2.00;;;1.00;;
48987;SDS011;34799;51.440;-2.534;2023-06-22T13:40:41;2.00;;;1.10;;
48987;SDS011;34799;51.440;-2.534;2023-06-22T13:43:08;3.45;;;1.20;;
48987;SDS011;34799;51.440;-2.534;2023-06-22T13:45:35;3.63;;;1.08;;
48987;SDS011;34799;51.440;-2.534;2023-06-22T13:48:03;2.20;;;1.00;;
48987;SDS011;34799;51.440;-2.534;2023-06-22T13:50:30;3.00;;;1.08;;
48987;SDS011;34799;51.440;-2.534;2023-06-22T13:52:57;1.88;;;1.30;;
48987;SDS011;34799;51.440;-2.534;2023-06-22T13:55:24;2.90;;;1.27;;
48987;SDS011;34799;51.440;-2.534;2023-06-22T13:57:54;2.90;;;0.77;;
48987;SDS011;34799;51.440;-2.534;2023-06-22T14:00:22;1.45;;;1.00;;
48987;SDS011;34799;51.440;-2.534;2023-06-22T14:02:49;2.42;;;0.90;;
48987;SDS011;34799;51.440;-2.534;2023-06-22T14:05:17;3.25;;;1.10;;
48987;SDS011;34799;51.440;-2.534;2023-06-22T14:07:45;7.80;;;1.20;;
48987;SDS011;34799;51.440;-2.534;2023-06-22T14:10:13;2.45;;;1.10;;
48987;SDS011;34799;51.440;-2.534;2023-06-22T14:12:40;4.50;;;1.23;;
48987;SDS011;34799;51.440;-2.534;2023-06-22T14:15:07;1.30;;;0.80;;
48987;SDS011;34799;51.440;-2.534;2023-06-22T14:17:34;3.22;;;1.02;;
48987;SDS011;34799;51.440;-2.534;2023-06-22T14:20:01;1.35;;;0.88;;
48987;SDS011;34799;51.440;-2.534;2023-06-22T14:22:29;1.77;;;0.80;;
48987;SDS011;34799;51.440;-2.534;2023-06-22T14:24:56;2.78;;;1.30;;
48987;SDS011;34799;51.440;-2.534;2023-06-22T14:27:25;2.22;;;0.88;;
48987;SDS011;34799;51.440;-2.534;2023-06-22T14:29:54;2.00;;;1.10;;
48987;SDS011;34799;51.440;-2.534;2023-06-22T14:32:21;3.53;;;0.70;;
48987;SDS011;34799;51.440;-2.534;2023-06-22T14:34:48;3.22;;;1.02;;
48987;SDS011;34799;51.440;-2.534;2023-06-22T14:37:16;2.22;;;0.82;;
48987;SDS011;34799;51.440;-2.534;2023-06-22T14:39:43;2.50;;;0.80;;
48987;SDS011;34799;51.440;-2.534;2023-06-22T14:42:10;1.88;;;0.77;;
48987;SDS011;34799;51.440;-2.534;2023-06-22T14:44:37;1.42;;;0.70;;
48987;SDS011;34799;51.440;-2.534;2023-06-22T14:47:04;2.83;;;0.68;;
48987;SDS011;34799;51.440;-2.534;2023-06-22T14:49:31;2.25;;;0.77;;